sensor_id;sensor_type;location;lat;lon;timestamp;P1;durP1;ratioP1;P2;durP2;ratioP2
45522;SDS011;31254;51.680;5.394;2023-12-14T00:01:44;15.55;;;10.27;;
45522;SDS011;31254;51.680;5.394;2023-12-14T00:04:12;15.45;;;10.27;;
45522;SDS011;31254;51.680;5.394;2023-12-14T00:06:39;14.88;;;9.85;;
45522;SDS011;31254;51.680;5.394;2023-12-14T00:09:06;14.45;;;9.95;;
45522;SDS011;31254;51.680;5.394;2023-12-14T00:11:38;14.50;;;9.98;;
45522;SDS011;31254;51.680;5.394;2023-12-14T00:14:05;16.20;;;10.63;;
45522;SDS011;31254;51.680;5.394;2023-12-14T00:16:32;16.30;;;10.38;;
45522;SDS011;31254;51.680;5.394;2023-12-14T00:18:59;16.23;;;10.25;;
45522;SDS011;31254;51.680;5.394;2023-12-14T00:21:26;15.38;;;10.15;;
45522;SDS011;31254;51.680;5.394;2023-12-14T00:23:52;17.33;;;11.32;;
45522;SDS011;31254;51.680;5.394;2023-12-14T00:26:19;15.10;;;10.52;;
45522;SDS011;31254;51.680;5.394;2023-12-14T00:28:45;13.98;;;10.05;;
45522;SDS011;31254;51.680;5.394;2023-12-14T00:31:12;17.48;;;11.48;;
45522;SDS011;31254;51.680;5.394;2023-12-14T00:33:39;15.75;;;10.57;;
45522;SDS011;31254;51.680;5.394;2023-12-14T00:36:06;15.70;;;10.75;;
45522;SDS011;31254;51.680;5.394;2023-12-14T00:38:32;15.48;;;10.18;;
45522;SDS011;31254;51.680;5.394;2023-12-14T00:40:59;16.05;;;11.07;;
45522;SDS011;31254;51.680;5.394;2023-12-14T00:43:26;15.23;;;10.20;;
45522;SDS011;31254;51.680;5.394;2023-12-14T00:45:52;16.27;;;11.35;;
45522;SDS011;31254;51.680;5.394;2023-12-14T00:48:19;15.77;;;10.65;;
45522;SDS011;31254;51.680;5.394;2023-12-14T00:50:45;15.70;;;10.27;;
45522;SDS011;31254;51.680;5.394;2023-12-14T00:53:12;15.85;;;10.25;;
45522;SDS011;31254;51.680;5.394;2023-12-14T00:55:39;15.20;;;9.73;;
45522;SDS011;31254;51.680;5.394;2023-12-14T00:58:05;15.80;;;10.20;;
45522;SDS011;31254;51.680;5.394;2023-12-14T01:00:32;13.85;;;9.70;;
45522;SDS011;31254;51.680;5.394;2023-12-14T01:02:58;15.75;;;10.32;;
45522;SDS011;31254;51.680;5.394;2023-12-14T01:05:25;14.63;;;10.07;;
45522;SDS011;31254;51.680;5.394;2023-12-14T01:07:52;15.88;;;9.98;;
45522;SDS011;31254;51.680;5.394;2023-12-14T01:10:18;15.38;;;9.60;;
45522;SDS011;31254;51.680;5.394;2023-12-14T01:12:45;15.38;;;10.45;;
45522;SDS011;31254;51.680;5.394;2023-12-14T01:15:12;15.68;;;9.98;;
45522;SDS011;31254;51.680;5.394;2023-12-14T01:17:38;13.77;;;9.40;;
45522;SDS011;31254;51.680;5.394;2023-12-14T01:20:06;15.65;;;9.52;;
45522;SDS011;31254;51.680;5.394;2023-12-14T01:22:33;14.27;;;9.85;;
45522;SDS011;31254;51.680;5.394;2023-12-14T01:25:00;15.30;;;9.90;;
45522;SDS011;31254;51.680;5.394;2023-12-14T01:27:27;15.30;;;10.07;;
45522;SDS011;31254;51.680;5.394;2023-12-14T01:29:54;15.45;;;9.93;;
45522;SDS011;31254;51.680;5.394;2023-12-14T01:32:20;16.35;;;10.25;;
45522;SDS011;31254;51.680;5.394;2023-12-14T01:34:47;14.48;;;9.43;;
45522;SDS011;31254;51.680;5.394;2023-12-14T01:37:14;13.73;;;9.38;;
45522;SDS011;31254;51.680;5.394;2023-12-14T01:39:40;14.65;;;10.15;;
45522;SDS011;31254;51.680;5.394;2023-12-14T01:42:07;14.13;;;9.43;;
45522;SDS011;31254;51.680;5.394;2023-12-14T01:44:33;13.13;;;9.60;;
45522;SDS011;31254;51.680;5.394;2023-12-14T01:47:00;14.45;;;9.77;;
45522;SDS011;31254;51.680;5.394;2023-12-14T01:49:26;15.20;;;9.75;;
45522;SDS011;31254;51.680;5.394;2023-12-14T01:51:53;14.57;;;9.80;;
45522;SDS011;31254;51.680;5.394;2023-12-14T01:54:20;13.85;;;9.38;;
45522;SDS011;31254;51.680;5.394;2023-12-14T01:56:46;13.73;;;9.45;;
45522;SDS011;31254;51.680;5.394;2023-12-14T01:59:14;15.85;;;9.85;;
45522;SDS011;31254;51.680;5.394;2023-12-14T02:01:44;15.98;;;10.20;;
45522;SDS011;31254;51.680;5.394;2023-12-14T02:04:12;14.48;;;9.57;;
45522;SDS011;31254;51.680;5.394;2023-12-14T02:06:41;16.70;;;10.27;;
45522;SDS011;31254;51.680;5.394;2023-12-14T02:09:07;15.15;;;9.60;;
45522;SDS011;31254;51.680;5.394;2023-12-14T02:11:34;16.55;;;10.40;;
45522;SDS011;31254;51.680;5.394;2023-12-14T02:14:11;15.98;;;10.13;;
45522;SDS011;31254;51.680;5.394;2023-12-14T02:16:38;12.75;;;9.55;;
45522;SDS011;31254;51.680;5.394;2023-12-14T02:19:05;18.23;;;9.65;;
45522;SDS011;31254;51.680;5.394;2023-12-14T02:21:32;14.85;;;10.32;;
45522;SDS011;31254;51.680;5.394;2023-12-14T02:23:59;14.80;;;9.60;;
45522;SDS011;31254;51.680;5.394;2023-12-14T02:26:25;14.35;;;9.40;;
45522;SDS011;31254;51.680;5.394;2023-12-14T02:28:52;13.60;;;9.35;;
45522;SDS011;31254;51.680;5.394;2023-12-14T02:31:19;15.27;;;9.95;;
45522;SDS011;31254;51.680;5.394;2023-12-14T02:33:46;14.50;;;9.98;;
45522;SDS011;31254;51.680;5.394;2023-12-14T02:36:13;13.80;;;9.90;;
45522;SDS011;31254;51.680;5.394;2023-12-14T02:38:39;16.23;;;9.48;;
45522;SDS011;31254;51.680;5.394;2023-12-14T02:41:06;15.57;;;9.90;;
45522;SDS011;31254;51.680;5.394;2023-12-14T02:43:33;16.45;;;9.82;;
45522;SDS011;31254;51.680;5.394;2023-12-14T02:46:00;15.80;;;9.90;;
45522;SDS011;31254;51.680;5.394;2023-12-14T02:48:29;14.18;;;9.02;;
45522;SDS011;31254;51.680;5.394;2023-12-14T02:50:56;14.60;;;9.45;;
45522;SDS011;31254;51.680;5.394;2023-12-14T02:53:23;13.18;;;9.07;;
45522;SDS011;31254;51.680;5.394;2023-12-14T02:55:49;13.60;;;9.13;;
45522;SDS011;31254;51.680;5.394;2023-12-14T02:58:16;15.07;;;9.95;;
45522;SDS011;31254;51.680;5.394;2023-12-14T03:00:44;15.10;;;9.27;;
45522;SDS011;31254;51.680;5.394;2023-12-14T03:03:11;14.98;;;9.93;;
45522;SDS011;31254;51.680;5.394;2023-12-14T03:05:37;15.45;;;10.02;;
45522;SDS011;31254;51.680;5.394;2023-12-14T03:08:04;14.73;;;9.95;;
45522;SDS011;31254;51.680;5.394;2023-12-14T03:10:31;14.43;;;9.45;;
45522;SDS011;31254;51.680;5.394;2023-12-14T03:12:57;14.85;;;9.75;;
45522;SDS011;31254;51.680;5.394;2023-12-14T03:15:24;13.88;;;9.32;;
45522;SDS011;31254;51.680;5.394;2023-12-14T03:17:50;15.20;;;9.95;;
45522;SDS011;31254;51.680;5.394;2023-12-14T03:20:17;15.10;;;9.63;;
45522;SDS011;31254;51.680;5.394;2023-12-14T03:22:43;15.27;;;10.23;;
45522;SDS011;31254;51.680;5.394;2023-12-14T03:25:10;14.25;;;9.60;;
45522;SDS011;31254;51.680;5.394;2023-12-14T03:27:37;13.45;;;9.43;;
45522;SDS011;31254;51.680;5.394;2023-12-14T03:30:03;14.07;;;9.95;;
45522;SDS011;31254;51.680;5.394;2023-12-14T03:32:34;14.43;;;9.88;;
45522;SDS011;31254;51.680;5.394;2023-12-14T03:35:01;16.50;;;10.23;;
45522;SDS011;31254;51.680;5.394;2023-12-14T03:37:28;15.48;;;10.43;;
45522;SDS011;31254;51.680;5.394;2023-12-14T03:39:55;14.10;;;9.60;;
45522;SDS011;31254;51.680;5.394;2023-12-14T03:42:22;15.70;;;10.20;;
45522;SDS011;31254;51.680;5.394;2023-12-14T03:44:49;14.70;;;10.02;;
45522;SDS011;31254;51.680;5.394;2023-12-14T03:47:15;15.93;;;10.00;;
45522;SDS011;31254;51.680;5.394;2023-12-14T03:49:42;13.13;;;9.43;;
45522;SDS011;31254;51.680;5.394;2023-12-14T03:52:09;14.82;;;9.25;;
45522;SDS011;31254;51.680;5.394;2023-12-14T03:54:35;14.40;;;9.77;;
45522;SDS011;31254;51.680;5.394;2023-12-14T03:57:02;15.00;;;9.82;;
45522;SDS011;31254;51.680;5.394;2023-12-14T03:59:28;14.57;;;9.98;;
45522;SDS011;31254;51.680;5.394;2023-12-14T04:01:55;15.32;;;10.68;;
45522;SDS011;31254;51.680;5.394;2023-12-14T04:04:22;14.98;;;10.48;;
45522;SDS011;31254;51.680;5.394;2023-12-14T04:06:49;15.35;;;10.70;;
45522;SDS011;31254;51.680;5.394;2023-12-14T04:09:15;15.35;;;10.50;;
45522;SDS011;31254;51.680;5.394;2023-12-14T04:11:42;14.63;;;10.27;;
45522;SDS011;31254;51.680;5.394;2023-12-14T04:14:09;15.43;;;9.98;;
45522;SDS011;31254;51.680;5.394;2023-12-14T04:16:36;15.23;;;10.23;;
45522;SDS011;31254;51.680;5.394;2023-12-14T04:19:03;13.85;;;10.07;;
45522;SDS011;31254;51.680;5.394;2023-12-14T04:21:36;14.32;;;10.30;;
45522;SDS011;31254;51.680;5.394;2023-12-14T04:24:03;15.10;;;9.98;;
45522;SDS011;31254;51.680;5.394;2023-12-14T04:26:30;15.70;;;10.90;;
45522;SDS011;31254;51.680;5.394;2023-12-14T04:28:57;14.02;;;10.18;;
45522;SDS011;31254;51.680;5.394;2023-12-14T04:31:24;14.65;;;10.32;;
45522;SDS011;31254;51.680;5.394;2023-12-14T04:33:50;13.00;;;9.90;;
45522;SDS011;31254;51.680;5.394;2023-12-14T04:36:17;14.93;;;10.77;;
45522;SDS011;31254;51.680;5.394;2023-12-14T04:38:44;15.07;;;10.40;;
45522;SDS011;31254;51.680;5.394;2023-12-14T04:41:12;13.27;;;9.80;;
45522;SDS011;31254;51.680;5.394;2023-12-14T04:43:39;14.77;;;10.10;;
45522;SDS011;31254;51.680;5.394;2023-12-14T04:46:06;15.05;;;10.43;;
45522;SDS011;31254;51.680;5.394;2023-12-14T04:48:32;14.13;;;9.80;;
45522;SDS011;31254;51.680;5.394;2023-12-14T04:50:59;14.27;;;10.13;;
45522;SDS011;31254;51.680;5.394;2023-12-14T04:53:26;16.40;;;10.20;;
45522;SDS011;31254;51.680;5.394;2023-12-14T04:55:52;14.82;;;9.85;;
45522;SDS011;31254;51.680;5.394;2023-12-14T04:58:19;16.13;;;10.27;;
45522;SDS011;31254;51.680;5.394;2023-12-14T05:00:46;14.65;;;10.48;;
45522;SDS011;31254;51.680;5.394;2023-12-14T05:03:12;14.95;;;10.32;;
45522;SDS011;31254;51.680;5.394;2023-12-14T05:05:39;15.90;;;10.13;;
45522;SDS011;31254;51.680;5.394;2023-12-14T05:08:06;15.82;;;10.88;;
45522;SDS011;31254;51.680;5.394;2023-12-14T05:10:32;14.18;;;10.52;;
45522;SDS011;31254;51.680;5.394;2023-12-14T05:13:02;15.45;;;10.90;;
45522;SDS011;31254;51.680;5.394;2023-12-14T05:15:28;15.60;;;10.98;;
45522;SDS011;31254;51.680;5.394;2023-12-14T05:17:55;15.65;;;10.52;;
45522;SDS011;31254;51.680;5.394;2023-12-14T05:20:21;15.45;;;11.18;;
45522;SDS011;31254;51.680;5.394;2023-12-14T05:22:48;16.52;;;10.48;;
45522;SDS011;31254;51.680;5.394;2023-12-14T05:25:15;16.25;;;11.65;;
45522;SDS011;31254;51.680;5.394;2023-12-14T05:27:41;14.68;;;10.48;;
45522;SDS011;31254;51.680;5.394;2023-12-14T05:30:08;15.23;;;10.25;;
45522;SDS011;31254;51.680;5.394;2023-12-14T05:32:35;14.85;;;10.40;;
45522;SDS011;31254;51.680;5.394;2023-12-14T05:35:02;15.90;;;11.13;;
45522;SDS011;31254;51.680;5.394;2023-12-14T05:37:29;16.70;;;10.98;;
45522;SDS011;31254;51.680;5.394;2023-12-14T05:39:56;15.05;;;10.73;;
45522;SDS011;31254;51.680;5.394;2023-12-14T05:42:22;15.82;;;11.43;;
45522;SDS011;31254;51.680;5.394;2023-12-14T05:44:49;14.02;;;10.68;;
45522;SDS011;31254;51.680;5.394;2023-12-14T05:47:16;15.50;;;10.88;;
45522;SDS011;31254;51.680;5.394;2023-12-14T05:49:43;14.75;;;10.23;;
45522;SDS011;31254;51.680;5.394;2023-12-14T05:52:10;15.18;;;10.90;;
45522;SDS011;31254;51.680;5.394;2023-12-14T05:54:38;15.20;;;10.40;;
45522;SDS011;31254;51.680;5.394;2023-12-14T05:57:06;15.27;;;10.65;;
45522;SDS011;31254;51.680;5.394;2023-12-14T05:59:32;15.18;;;10.70;;
45522;SDS011;31254;51.680;5.394;2023-12-14T06:01:59;16.33;;;11.13;;
45522;SDS011;31254;51.680;5.394;2023-12-14T06:04:27;13.63;;;10.32;;
45522;SDS011;31254;51.680;5.394;2023-12-14T06:06:54;14.77;;;10.20;;
45522;SDS011;31254;51.680;5.394;2023-12-14T06:09:20;16.23;;;10.18;;
45522;SDS011;31254;51.680;5.394;2023-12-14T06:11:55;13.40;;;9.63;;
45522;SDS011;31254;51.680;5.394;2023-12-14T06:14:22;14.63;;;10.13;;
45522;SDS011;31254;51.680;5.394;2023-12-14T06:16:49;14.60;;;10.80;;
45522;SDS011;31254;51.680;5.394;2023-12-14T06:19:15;14.50;;;10.45;;
45522;SDS011;31254;51.680;5.394;2023-12-14T06:21:42;15.30;;;10.43;;
45522;SDS011;31254;51.680;5.394;2023-12-14T06:24:08;15.55;;;10.50;;
45522;SDS011;31254;51.680;5.394;2023-12-14T06:26:35;15.10;;;11.10;;
45522;SDS011;31254;51.680;5.394;2023-12-14T06:29:15;16.15;;;11.23;;
45522;SDS011;31254;51.680;5.394;2023-12-14T06:31:42;18.00;;;11.70;;
45522;SDS011;31254;51.680;5.394;2023-12-14T06:34:08;16.27;;;11.48;;
45522;SDS011;31254;51.680;5.394;2023-12-14T06:36:35;14.60;;;10.48;;
45522;SDS011;31254;51.680;5.394;2023-12-14T06:39:02;17.52;;;11.15;;
45522;SDS011;31254;51.680;5.394;2023-12-14T06:41:31;16.00;;;11.15;;
45522;SDS011;31254;51.680;5.394;2023-12-14T06:43:58;16.45;;;10.95;;
45522;SDS011;31254;51.680;5.394;2023-12-14T06:46:24;16.90;;;10.73;;
45522;SDS011;31254;51.680;5.394;2023-12-14T06:48:51;15.13;;;10.80;;
45522;SDS011;31254;51.680;5.394;2023-12-14T06:51:18;16.88;;;10.73;;
45522;SDS011;31254;51.680;5.394;2023-12-14T06:53:44;15.10;;;10.43;;
45522;SDS011;31254;51.680;5.394;2023-12-14T06:56:12;15.65;;;10.55;;
45522;SDS011;31254;51.680;5.394;2023-12-14T06:58:39;14.82;;;10.77;;
45522;SDS011;31254;51.680;5.394;2023-12-14T07:01:10;16.83;;;11.40;;
45522;SDS011;31254;51.680;5.394;2023-12-14T07:03:41;15.82;;;10.57;;
45522;SDS011;31254;51.680;5.394;2023-12-14T07:06:14;15.45;;;10.23;;
45522;SDS011;31254;51.680;5.394;2023-12-14T07:08:42;16.40;;;11.02;;
45522;SDS011;31254;51.680;5.394;2023-12-14T07:11:08;15.43;;;10.27;;
45522;SDS011;31254;51.680;5.394;2023-12-14T07:13:36;16.70;;;10.65;;
45522;SDS011;31254;51.680;5.394;2023-12-14T07:16:07;15.18;;;10.70;;
45522;SDS011;31254;51.680;5.394;2023-12-14T07:18:35;14.20;;;10.73;;
45522;SDS011;31254;51.680;5.394;2023-12-14T07:21:05;14.95;;;9.70;;
45522;SDS011;31254;51.680;5.394;2023-12-14T07:23:33;14.40;;;9.88;;
45522;SDS011;31254;51.680;5.394;2023-12-14T07:26:00;14.60;;;9.25;;
45522;SDS011;31254;51.680;5.394;2023-12-14T07:28:30;16.65;;;10.35;;
45522;SDS011;31254;51.680;5.394;2023-12-14T07:30:57;15.10;;;9.77;;
45522;SDS011;31254;51.680;5.394;2023-12-14T07:33:23;13.02;;;8.82;;
45522;SDS011;31254;51.680;5.394;2023-12-14T07:35:50;14.65;;;9.35;;
45522;SDS011;31254;51.680;5.394;2023-12-14T07:38:17;15.05;;;9.90;;
45522;SDS011;31254;51.680;5.394;2023-12-14T07:40:44;15.73;;;10.48;;
45522;SDS011;31254;51.680;5.394;2023-12-14T07:43:11;14.15;;;9.10;;
45522;SDS011;31254;51.680;5.394;2023-12-14T07:45:38;15.02;;;9.55;;
45522;SDS011;31254;51.680;5.394;2023-12-14T07:48:04;16.52;;;10.73;;
45522;SDS011;31254;51.680;5.394;2023-12-14T07:50:31;13.73;;;9.25;;
45522;SDS011;31254;51.680;5.394;2023-12-14T07:52:58;15.02;;;9.68;;
45522;SDS011;31254;51.680;5.394;2023-12-14T07:55:24;14.05;;;9.38;;
45522;SDS011;31254;51.680;5.394;2023-12-14T07:57:51;14.60;;;10.23;;
45522;SDS011;31254;51.680;5.394;2023-12-14T08:00:18;13.57;;;9.32;;
45522;SDS011;31254;51.680;5.394;2023-12-14T08:02:44;14.35;;;9.60;;
45522;SDS011;31254;51.680;5.394;2023-12-14T08:05:11;13.00;;;8.10;;
45522;SDS011;31254;51.680;5.394;2023-12-14T08:07:38;12.40;;;8.75;;
45522;SDS011;31254;51.680;5.394;2023-12-14T08:10:04;13.77;;;9.40;;
45522;SDS011;31254;51.680;5.394;2023-12-14T08:12:31;14.85;;;9.75;;
45522;SDS011;31254;51.680;5.394;2023-12-14T08:14:59;13.25;;;8.82;;
45522;SDS011;31254;51.680;5.394;2023-12-14T08:17:26;15.82;;;9.30;;
45522;SDS011;31254;51.680;5.394;2023-12-14T08:19:54;12.38;;;8.27;;
45522;SDS011;31254;51.680;5.394;2023-12-14T08:22:21;13.32;;;8.88;;
45522;SDS011;31254;51.680;5.394;2023-12-14T08:24:48;14.43;;;9.13;;
45522;SDS011;31254;51.680;5.394;2023-12-14T08:27:15;14.00;;;9.32;;
45522;SDS011;31254;51.680;5.394;2023-12-14T08:29:42;14.45;;;8.35;;
45522;SDS011;31254;51.680;5.394;2023-12-14T08:32:11;12.80;;;8.52;;
45522;SDS011;31254;51.680;5.394;2023-12-14T08:34:39;12.88;;;8.98;;
45522;SDS011;31254;51.680;5.394;2023-12-14T08:37:07;11.77;;;8.35;;
45522;SDS011;31254;51.680;5.394;2023-12-14T08:39:34;13.38;;;8.57;;
45522;SDS011;31254;51.680;5.394;2023-12-14T08:42:01;12.70;;;8.32;;
45522;SDS011;31254;51.680;5.394;2023-12-14T08:44:27;12.32;;;7.55;;
45522;SDS011;31254;51.680;5.394;2023-12-14T08:46:54;11.30;;;7.65;;
45522;SDS011;31254;51.680;5.394;2023-12-14T08:49:21;11.45;;;7.82;;
45522;SDS011;31254;51.680;5.394;2023-12-14T08:51:49;10.95;;;7.60;;
45522;SDS011;31254;51.680;5.394;2023-12-14T08:54:16;11.95;;;7.75;;
45522;SDS011;31254;51.680;5.394;2023-12-14T08:56:43;11.35;;;7.82;;
45522;SDS011;31254;51.680;5.394;2023-12-14T08:59:10;11.48;;;7.95;;
45522;SDS011;31254;51.680;5.394;2023-12-14T09:01:38;10.98;;;7.68;;
45522;SDS011;31254;51.680;5.394;2023-12-14T09:04:05;12.65;;;7.88;;
45522;SDS011;31254;51.680;5.394;2023-12-14T09:06:32;10.32;;;7.60;;
45522;SDS011;31254;51.680;5.394;2023-12-14T09:08:59;11.57;;;7.50;;
45522;SDS011;31254;51.680;5.394;2023-12-14T09:11:25;11.20;;;7.85;;
45522;SDS011;31254;51.680;5.394;2023-12-14T09:13:52;12.73;;;8.05;;
45522;SDS011;31254;51.680;5.394;2023-12-14T09:16:18;10.07;;;7.47;;
45522;SDS011;31254;51.680;5.394;2023-12-14T09:18:45;13.30;;;7.47;;
45522;SDS011;31254;51.680;5.394;2023-12-14T09:21:12;10.63;;;7.65;;
45522;SDS011;31254;51.680;5.394;2023-12-14T09:23:38;11.80;;;8.38;;
45522;SDS011;31254;51.680;5.394;2023-12-14T09:26:07;11.70;;;8.00;;
45522;SDS011;31254;51.680;5.394;2023-12-14T09:28:34;12.68;;;7.97;;
45522;SDS011;31254;51.680;5.394;2023-12-14T09:31:01;11.25;;;7.65;;
45522;SDS011;31254;51.680;5.394;2023-12-14T09:33:30;11.75;;;7.88;;
45522;SDS011;31254;51.680;5.394;2023-12-14T09:35:57;12.07;;;7.93;;
45522;SDS011;31254;51.680;5.394;2023-12-14T09:38:23;10.65;;;6.85;;
45522;SDS011;31254;51.680;5.394;2023-12-14T09:40:50;11.60;;;7.68;;
45522;SDS011;31254;51.680;5.394;2023-12-14T09:43:16;12.35;;;7.80;;
45522;SDS011;31254;51.680;5.394;2023-12-14T09:45:43;12.23;;;7.68;;
45522;SDS011;31254;51.680;5.394;2023-12-14T09:48:12;10.80;;;7.68;;
45522;SDS011;31254;51.680;5.394;2023-12-14T09:50:41;11.00;;;7.78;;
45522;SDS011;31254;51.680;5.394;2023-12-14T09:53:11;12.20;;;7.93;;
45522;SDS011;31254;51.680;5.394;2023-12-14T09:55:38;10.70;;;7.25;;
45522;SDS011;31254;51.680;5.394;2023-12-14T09:58:05;10.38;;;7.40;;
45522;SDS011;31254;51.680;5.394;2023-12-14T10:00:36;9.88;;;7.00;;
45522;SDS011;31254;51.680;5.394;2023-12-14T10:05:54;11.95;;;7.82;;
45522;SDS011;31254;51.680;5.394;2023-12-14T10:08:22;10.52;;;7.20;;
45522;SDS011;31254;51.680;5.394;2023-12-14T10:10:50;10.38;;;7.72;;
45522;SDS011;31254;51.680;5.394;2023-12-14T10:13:20;12.43;;;7.88;;
45522;SDS011;31254;51.680;5.394;2023-12-14T10:15:48;11.43;;;7.70;;
45522;SDS011;31254;51.680;5.394;2023-12-14T10:18:22;11.65;;;7.13;;
45522;SDS011;31254;51.680;5.394;2023-12-14T10:20:51;9.10;;;6.80;;
45522;SDS011;31254;51.680;5.394;2023-12-14T10:23:18;12.15;;;7.20;;
45522;SDS011;31254;51.680;5.394;2023-12-14T10:25:45;10.27;;;7.43;;
45522;SDS011;31254;51.680;5.394;2023-12-14T10:28:13;10.73;;;7.28;;
45522;SDS011;31254;51.680;5.394;2023-12-14T10:30:40;11.52;;;7.78;;
45522;SDS011;31254;51.680;5.394;2023-12-14T10:33:08;11.93;;;7.72;;
45522;SDS011;31254;51.680;5.394;2023-12-14T10:35:35;10.57;;;7.55;;
45522;SDS011;31254;51.680;5.394;2023-12-14T10:38:03;12.13;;;7.57;;
45522;SDS011;31254;51.680;5.394;2023-12-14T10:40:32;12.13;;;7.28;;
45522;SDS011;31254;51.680;5.394;2023-12-14T10:42:59;11.18;;;7.50;;
45522;SDS011;31254;51.680;5.394;2023-12-14T10:45:29;12.98;;;7.53;;
45522;SDS011;31254;51.680;5.394;2023-12-14T10:47:59;9.82;;;6.85;;
45522;SDS011;31254;51.680;5.394;2023-12-14T10:50:31;10.07;;;7.05;;
45522;SDS011;31254;51.680;5.394;2023-12-14T10:52:58;10.95;;;7.55;;
45522;SDS011;31254;51.680;5.394;2023-12-14T10:55:31;10.50;;;6.78;;
45522;SDS011;31254;51.680;5.394;2023-12-14T10:58:04;11.25;;;7.90;;
45522;SDS011;31254;51.680;5.394;2023-12-14T11:00:31;10.80;;;7.18;;
45522;SDS011;31254;51.680;5.394;2023-12-14T11:02:58;10.85;;;7.32;;
45522;SDS011;31254;51.680;5.394;2023-12-14T11:05:28;10.82;;;7.20;;
45522;SDS011;31254;51.680;5.394;2023-12-14T11:08:00;11.38;;;7.82;;
45522;SDS011;31254;51.680;5.394;2023-12-14T11:10:37;10.82;;;7.45;;
45522;SDS011;31254;51.680;5.394;2023-12-14T11:13:09;11.40;;;7.53;;
45522;SDS011;31254;51.680;5.394;2023-12-14T11:15:45;11.27;;;7.28;;
45522;SDS011;31254;51.680;5.394;2023-12-14T11:18:20;12.00;;;7.57;;
45522;SDS011;31254;51.680;5.394;2023-12-14T11:20:56;9.60;;;7.22;;
45522;SDS011;31254;51.680;5.394;2023-12-14T11:23:29;10.05;;;7.05;;
45522;SDS011;31254;51.680;5.394;2023-12-14T11:26:08;11.35;;;7.78;;
45522;SDS011;31254;51.680;5.394;2023-12-14T11:28:40;10.68;;;6.97;;
45522;SDS011;31254;51.680;5.394;2023-12-14T11:31:10;11.13;;;7.50;;
45522;SDS011;31254;51.680;5.394;2023-12-14T11:33:41;10.80;;;7.20;;
45522;SDS011;31254;51.680;5.394;2023-12-14T11:36:11;11.55;;;7.55;;
45522;SDS011;31254;51.680;5.394;2023-12-14T11:38:38;9.40;;;6.85;;
45522;SDS011;31254;51.680;5.394;2023-12-14T11:41:05;11.25;;;7.28;;
45522;SDS011;31254;51.680;5.394;2023-12-14T11:43:42;11.73;;;7.70;;
45522;SDS011;31254;51.680;5.394;2023-12-14T11:46:10;11.27;;;7.38;;
45522;SDS011;31254;51.680;5.394;2023-12-14T11:48:38;10.20;;;7.07;;
45522;SDS011;31254;51.680;5.394;2023-12-14T11:51:05;10.90;;;7.60;;
45522;SDS011;31254;51.680;5.394;2023-12-14T11:53:32;11.00;;;7.97;;
45522;SDS011;31254;51.680;5.394;2023-12-14T11:56:00;10.65;;;7.82;;
45522;SDS011;31254;51.680;5.394;2023-12-14T11:58:29;10.65;;;7.60;;
45522;SDS011;31254;51.680;5.394;2023-12-14T12:01:09;9.60;;;7.25;;
45522;SDS011;31254;51.680;5.394;2023-12-14T12:03:47;10.65;;;7.97;;
45522;SDS011;31254;51.680;5.394;2023-12-14T12:06:21;12.95;;;7.53;;
45522;SDS011;31254;51.680;5.394;2023-12-14T12:08:49;10.98;;;7.60;;
45522;SDS011;31254;51.680;5.394;2023-12-14T12:11:19;12.32;;;7.75;;
45522;SDS011;31254;51.680;5.394;2023-12-14T12:13:52;10.43;;;7.20;;
45522;SDS011;31254;51.680;5.394;2023-12-14T12:16:20;11.13;;;8.02;;
45522;SDS011;31254;51.680;5.394;2023-12-14T12:18:47;13.40;;;7.68;;
45522;SDS011;31254;51.680;5.394;2023-12-14T12:21:14;10.00;;;7.43;;
45522;SDS011;31254;51.680;5.394;2023-12-14T12:23:41;10.07;;;7.18;;
45522;SDS011;31254;51.680;5.394;2023-12-14T12:26:08;10.38;;;7.95;;
45522;SDS011;31254;51.680;5.394;2023-12-14T12:28:35;10.80;;;7.30;;
45522;SDS011;31254;51.680;5.394;2023-12-14T12:31:03;11.38;;;7.57;;
45522;SDS011;31254;51.680;5.394;2023-12-14T12:33:30;12.15;;;8.10;;
45522;SDS011;31254;51.680;5.394;2023-12-14T12:36:04;10.85;;;7.70;;
45522;SDS011;31254;51.680;5.394;2023-12-14T12:38:31;11.70;;;8.13;;
45522;SDS011;31254;51.680;5.394;2023-12-14T12:40:58;11.20;;;7.82;;
45522;SDS011;31254;51.680;5.394;2023-12-14T12:43:27;10.55;;;7.28;;
45522;SDS011;31254;51.680;5.394;2023-12-14T12:45:53;11.68;;;7.57;;
45522;SDS011;31254;51.680;5.394;2023-12-14T12:48:20;11.00;;;7.97;;
45522;SDS011;31254;51.680;5.394;2023-12-14T12:50:51;10.73;;;7.30;;
45522;SDS011;31254;51.680;5.394;2023-12-14T12:53:18;10.13;;;7.57;;
45522;SDS011;31254;51.680;5.394;2023-12-14T12:55:45;12.10;;;7.68;;
45522;SDS011;31254;51.680;5.394;2023-12-14T12:58:12;13.63;;;8.02;;
45522;SDS011;31254;51.680;5.394;2023-12-14T13:00:41;11.38;;;7.32;;
45522;SDS011;31254;51.680;5.394;2023-12-14T13:03:07;11.82;;;8.00;;
45522;SDS011;31254;51.680;5.394;2023-12-14T13:05:34;11.13;;;7.75;;
45522;SDS011;31254;51.680;5.394;2023-12-14T13:08:01;10.95;;;7.78;;
45522;SDS011;31254;51.680;5.394;2023-12-14T13:10:27;10.93;;;7.75;;
45522;SDS011;31254;51.680;5.394;2023-12-14T13:12:58;11.40;;;7.82;;
45522;SDS011;31254;51.680;5.394;2023-12-14T13:15:25;10.38;;;7.50;;
45522;SDS011;31254;51.680;5.394;2023-12-14T13:17:53;12.32;;;8.60;;
45522;SDS011;31254;51.680;5.394;2023-12-14T13:20:20;11.75;;;8.13;;
45522;SDS011;31254;51.680;5.394;2023-12-14T13:22:47;10.90;;;7.80;;
45522;SDS011;31254;51.680;5.394;2023-12-14T13:25:14;10.82;;;7.80;;
45522;SDS011;31254;51.680;5.394;2023-12-14T13:27:41;11.45;;;7.95;;
45522;SDS011;31254;51.680;5.394;2023-12-14T13:30:10;11.38;;;7.72;;
45522;SDS011;31254;51.680;5.394;2023-12-14T13:32:37;10.93;;;8.32;;
45522;SDS011;31254;51.680;5.394;2023-12-14T13:35:04;10.70;;;7.60;;
45522;SDS011;31254;51.680;5.394;2023-12-14T13:37:32;11.00;;;7.97;;
45522;SDS011;31254;51.680;5.394;2023-12-14T13:39:59;13.95;;;8.73;;
45522;SDS011;31254;51.680;5.394;2023-12-14T13:42:26;13.55;;;8.52;;
45522;SDS011;31254;51.680;5.394;2023-12-14T13:44:53;11.50;;;8.07;;
45522;SDS011;31254;51.680;5.394;2023-12-14T13:47:20;11.38;;;8.27;;
45522;SDS011;31254;51.680;5.394;2023-12-14T13:49:47;11.48;;;8.18;;
45522;SDS011;31254;51.680;5.394;2023-12-14T13:52:13;11.05;;;7.85;;
45522;SDS011;31254;51.680;5.394;2023-12-14T13:54:40;12.68;;;8.15;;
45522;SDS011;31254;51.680;5.394;2023-12-14T13:57:07;10.50;;;7.60;;
45522;SDS011;31254;51.680;5.394;2023-12-14T13:59:33;10.98;;;7.78;;
45522;SDS011;31254;51.680;5.394;2023-12-14T14:02:00;11.40;;;8.10;;
45522;SDS011;31254;51.680;5.394;2023-12-14T14:04:27;11.65;;;8.13;;
45522;SDS011;31254;51.680;5.394;2023-12-14T14:06:53;12.07;;;7.55;;
45522;SDS011;31254;51.680;5.394;2023-12-14T14:09:20;13.50;;;8.45;;
45522;SDS011;31254;51.680;5.394;2023-12-14T14:11:47;12.32;;;7.93;;
45522;SDS011;31254;51.680;5.394;2023-12-14T14:14:15;10.98;;;8.10;;
45522;SDS011;31254;51.680;5.394;2023-12-14T14:16:42;12.70;;;8.50;;
45522;SDS011;31254;51.680;5.394;2023-12-14T14:19:09;10.35;;;7.65;;
45522;SDS011;31254;51.680;5.394;2023-12-14T14:21:36;11.68;;;8.25;;
45522;SDS011;31254;51.680;5.394;2023-12-14T14:24:03;10.20;;;8.00;;
45522;SDS011;31254;51.680;5.394;2023-12-14T14:26:29;10.00;;;7.75;;
45522;SDS011;31254;51.680;5.394;2023-12-14T14:28:56;12.00;;;7.93;;
45522;SDS011;31254;51.680;5.394;2023-12-14T14:31:28;11.05;;;8.02;;
45522;SDS011;31254;51.680;5.394;2023-12-14T14:34:01;10.57;;;7.78;;
45522;SDS011;31254;51.680;5.394;2023-12-14T14:36:27;12.05;;;8.07;;